sensor_id;sensor_type;location;lat;lon;timestamp;temperature;humidity
21849;DHT22;11089;49.852;19.700;2023-04-01T00:00:40;10.30;99.90
21849;DHT22;11089;49.852;19.700;2023-04-01T00:03:42;10.30;99.90
21849;DHT22;11089;49.852;19.700;2023-04-01T00:06:43;10.30;99.90
21849;DHT22;11089;49.852;19.700;2023-04-01T00:09:44;10.20;99.90
21849;DHT22;11089;49.852;19.700;2023-04-01T00:12:45;10.10;99.90
21849;DHT22;11089;49.852;19.700;2023-04-01T00:15:46;10.00;99.90
21849;DHT22;11089;49.852;19.700;2023-04-01T00:18:48;10.10;99.90
21849;DHT22;11089;49.852;19.700;2023-04-01T00:21:49;9.90;99.90
21849;DHT22;11089;49.852;19.700;2023-04-01T00:24:50;10.00;99.90
21849;DHT22;11089;49.852;19.700;2023-04-01T00:27:51;9.90;99.90
21849;DHT22;11089;49.852;19.700;2023-04-01T00:30:52;9.90;99.90
21849;DHT22;11089;49.852;19.700;2023-04-01T00:33:53;9.80;99.90
21849;DHT22;11089;49.852;19.700;2023-04-01T00:36:54;9.80;1.00
21849;DHT22;11089;49.852;19.700;2023-04-01T00:39:55;9.70;1.00
21849;DHT22;11089;49.852;19.700;2023-04-01T00:42:56;9.70;1.00
21849;DHT22;11089;49.852;19.700;2023-04-01T00:45:58;9.60;1.00
21849;DHT22;11089;49.852;19.700;2023-04-01T00:48:59;9.60;1.00
21849;DHT22;11089;49.852;19.700;2023-04-01T00:52:03;9.60;1.00
21849;DHT22;11089;49.852;19.700;2023-04-01T00:55:06;9.70;1.00
21849;DHT22;11089;49.852;19.700;2023-04-01T00:58:11;9.60;1.00
21849;DHT22;11089;49.852;19.700;2023-04-01T01:01:14;9.60;1.00
21849;DHT22;11089;49.852;19.700;2023-04-01T01:04:30;9.60;1.00
21849;DHT22;11089;49.852;19.700;2023-04-01T01:07:46;9.70;1.00
21849;DHT22;11089;49.852;19.700;2023-04-01T01:10:50;9.70;1.00
21849;DHT22;11089;49.852;19.700;2023-04-01T01:27:10;9.60;99.90
21849;DHT22;11089;49.852;19.700;2023-04-01T01:33:35;9.60;1.00
21849;DHT22;11089;49.852;19.700;2023-04-01T01:36:42;9.60;1.00
21849;DHT22;11089;49.852;19.700;2023-04-01T01:39:51;9.60;1.00
21849;DHT22;11089;49.852;19.700;2023-04-01T01:42:58;9.60;1.00
21849;DHT22;11089;49.852;19.700;2023-04-01T01:46:05;9.60;1.00
21849;DHT22;11089;49.852;19.700;2023-04-01T01:49:07;9.70;1.00
21849;DHT22;11089;49.852;19.700;2023-04-01T01:52:11;9.60;1.00
21849;DHT22;11089;49.852;19.700;2023-04-01T01:55:28;9.70;1.00
21849;DHT22;11089;49.852;19.700;2023-04-01T01:58:36;9.60;1.00
21849;DHT22;11089;49.852;19.700;2023-04-01T02:01:43;9.70;1.00
21849;DHT22;11089;49.852;19.700;2023-04-01T02:04:46;9.60;1.00
21849;DHT22;11089;49.852;19.700;2023-04-01T02:08:01;9.70;1.00
21849;DHT22;11089;49.852;19.700;2023-04-01T02:11:05;9.60;1.00
21849;DHT22;11089;49.852;19.700;2023-04-01T02:17:19;9.60;1.00
21849;DHT22;11089;49.852;19.700;2023-04-01T02:20:22;9.60;1.00
21849;DHT22;11089;49.852;19.700;2023-04-01T02:23:24;9.60;1.00
21849;DHT22;11089;49.852;19.700;2023-04-01T02:26:25;9.60;1.00
21849;DHT22;11089;49.852;19.700;2023-04-01T02:29:27;9.60;1.00
21849;DHT22;11089;49.852;19.700;2023-04-01T02:32:29;9.50;1.00
21849;DHT22;11089;49.852;19.700;2023-04-01T02:35:34;9.60;1.00
21849;DHT22;11089;49.852;19.700;2023-04-01T02:38:37;9.60;1.00
21849;DHT22;11089;49.852;19.700;2023-04-01T02:41:42;9.60;1.00
21849;DHT22;11089;49.852;19.700;2023-04-01T02:44:43;9.60;1.00
21849;DHT22;11089;49.852;19.700;2023-04-01T02:47:44;9.60;1.00
21849;DHT22;11089;49.852;19.700;2023-04-01T02:50:46;9.60;1.00
21849;DHT22;11089;49.852;19.700;2023-04-01T02:53:47;9.70;1.00
21849;DHT22;11089;49.852;19.700;2023-04-01T02:56:48;9.60;1.00
21849;DHT22;11089;49.852;19.700;2023-04-01T02:59:49;9.60;1.00
21849;DHT22;11089;49.852;19.700;2023-04-01T03:02:50;9.60;1.00
21849;DHT22;11089;49.852;19.700;2023-04-01T03:05:51;9.60;1.00
21849;DHT22;11089;49.852;19.700;2023-04-01T03:08:52;9.60;1.00
21849;DHT22;11089;49.852;19.700;2023-04-01T03:11:52;9.50;1.00
21849;DHT22;11089;49.852;19.700;2023-04-01T03:14:53;9.60;1.00
21849;DHT22;11089;49.852;19.700;2023-04-01T03:17:54;9.60;1.00
21849;DHT22;11089;49.852;19.700;2023-04-01T03:20:55;9.60;1.00
21849;DHT22;11089;49.852;19.700;2023-04-01T03:23:56;9.50;1.00
21849;DHT22;11089;49.852;19.700;2023-04-01T03:26:57;9.50;1.00
21849;DHT22;11089;49.852;19.700;2023-04-01T03:29:58;9.40;59.10
21849;DHT22;11089;49.852;19.700;2023-04-01T03:32:59;9.40;99.90
21849;DHT22;11089;49.852;19.700;2023-04-01T03:36:01;9.40;99.90
21849;DHT22;11089;49.852;19.700;2023-04-01T03:39:02;9.40;1.00
21849;DHT22;11089;49.852;19.700;2023-04-01T03:42:04;9.30;1.00
21849;DHT22;11089;49.852;19.700;2023-04-01T03:45:07;9.30;1.00
21849;DHT22;11089;49.852;19.700;2023-04-01T03:48:08;9.30;1.00
21849;DHT22;11089;49.852;19.700;2023-04-01T03:51:09;9.30;1.00
21849;DHT22;11089;49.852;19.700;2023-04-01T03:54:10;9.30;1.00
21849;DHT22;11089;49.852;19.700;2023-04-01T03:57:11;9.30;1.00
21849;DHT22;11089;49.852;19.700;2023-04-01T04:00:12;9.30;1.00
21849;DHT22;11089;49.852;19.700;2023-04-01T04:03:13;9.30;1.00
21849;DHT22;11089;49.852;19.700;2023-04-01T04:06:15;9.30;1.00
21849;DHT22;11089;49.852;19.700;2023-04-01T04:09:16;9.30;1.00
21849;DHT22;11089;49.852;19.700;2023-04-01T04:12:17;9.30;1.00
21849;DHT22;11089;49.852;19.700;2023-04-01T04:15:18;9.30;1.00
21849;DHT22;11089;49.852;19.700;2023-04-01T04:18:19;9.20;1.00
21849;DHT22;11089;49.852;19.700;2023-04-01T04:21:20;9.30;1.00
21849;DHT22;11089;49.852;19.700;2023-04-01T04:24:21;9.30;1.00
21849;DHT22;11089;49.852;19.700;2023-04-01T04:27:21;9.30;1.00
21849;DHT22;11089;49.852;19.700;2023-04-01T04:30:22;9.30;1.00
21849;DHT22;11089;49.852;19.700;2023-04-01T04:33:24;9.30;1.00
21849;DHT22;11089;49.852;19.700;2023-04-01T04:36:25;9.40;1.00
21849;DHT22;11089;49.852;19.700;2023-04-01T04:39:26;9.30;99.90
21849;DHT22;11089;49.852;19.700;2023-04-01T04:42:27;9.40;99.90
21849;DHT22;11089;49.852;19.700;2023-04-01T04:45:28;9.40;1.00
21849;DHT22;11089;49.852;19.700;2023-04-01T04:48:29;9.30;1.00
21849;DHT22;11089;49.852;19.700;2023-04-01T04:51:30;9.30;1.00
21849;DHT22;11089;49.852;19.700;2023-04-01T04:54:31;9.20;1.00
21849;DHT22;11089;49.852;19.700;2023-04-01T04:57:32;9.20;1.00
21849;DHT22;11089;49.852;19.700;2023-04-01T05:00:33;9.20;99.90
21849;DHT22;11089;49.852;19.700;2023-04-01T05:03:33;9.20;1.00
21849;DHT22;11089;49.852;19.700;2023-04-01T05:06:34;9.10;1.00
21849;DHT22;11089;49.852;19.700;2023-04-01T05:09:35;9.00;99.90
21849;DHT22;11089;49.852;19.700;2023-04-01T05:12:36;9.00;81.30
21849;DHT22;11089;49.852;19.700;2023-04-01T05:15:39;9.10;1.00
21849;DHT22;11089;49.852;19.700;2023-04-01T05:18:41;9.00;70.40
21849;DHT22;11089;49.852;19.700;2023-04-01T05:21:42;8.90;1.00
21849;DHT22;11089;49.852;19.700;2023-04-01T05:24:43;8.90;1.00
21849;DHT22;11089;49.852;19.700;2023-04-01T05:27:43;9.00;1.00
21849;DHT22;11089;49.852;19.700;2023-04-01T05:30:45;9.00;12.30
21849;DHT22;11089;49.852;19.700;2023-04-01T05:33:46;9.10;1.00
21849;DHT22;11089;49.852;19.700;2023-04-01T05:36:47;9.10;1.00
21849;DHT22;11089;49.852;19.700;2023-04-01T05:39:48;9.20;1.00
21849;DHT22;11089;49.852;19.700;2023-04-01T05:42:49;9.20;1.00
21849;DHT22;11089;49.852;19.700;2023-04-01T05:45:50;9.20;1.00
21849;DHT22;11089;49.852;19.700;2023-04-01T05:48:51;9.30;1.00
21849;DHT22;11089;49.852;19.700;2023-04-01T05:51:52;9.30;99.90
21849;DHT22;11089;49.852;19.700;2023-04-01T05:54:53;9.30;99.90
21849;DHT22;11089;49.852;19.700;2023-04-01T05:57:54;9.50;99.90
21849;DHT22;11089;49.852;19.700;2023-04-01T06:01:04;9.60;1.00
21849;DHT22;11089;49.852;19.700;2023-04-01T06:04:05;9.60;1.00
21849;DHT22;11089;49.852;19.700;2023-04-01T06:07:17;9.60;1.00
21849;DHT22;11089;49.852;19.700;2023-04-01T06:10:20;9.60;1.00
21849;DHT22;11089;49.852;19.700;2023-04-01T06:40:31;9.80;99.90
21849;DHT22;11089;49.852;19.700;2023-04-01T06:47:15;10.10;1.00
21849;DHT22;11089;49.852;19.700;2023-04-01T06:50:29;10.10;93.20
21849;DHT22;11089;49.852;19.700;2023-04-01T06:56:49;10.50;31.20
21849;DHT22;11089;49.852;19.700;2023-04-01T06:59:52;10.50;1.00
21849;DHT22;11089;49.852;19.700;2023-04-01T07:03:06;10.70;1.00
21849;DHT22;11089;49.852;19.700;2023-04-01T07:06:18;10.80;99.90
21849;DHT22;11089;49.852;19.700;2023-04-01T07:09:26;11.10;1.00
21849;DHT22;11089;49.852;19.700;2023-04-01T07:12:43;11.50;1.00
21849;DHT22;11089;49.852;19.700;2023-04-01T07:19:21;11.60;1.00
21849;DHT22;11089;49.852;19.700;2023-04-01T07:22:29;11.70;1.00
21849;DHT22;11089;49.852;19.700;2023-04-01T07:25:41;12.00;1.00
21849;DHT22;11089;49.852;19.700;2023-04-01T07:28:44;12.20;1.00
21849;DHT22;11089;49.852;19.700;2023-04-01T07:51:37;12.50;1.00
21849;DHT22;11089;49.852;19.700;2023-04-01T07:55:04;12.40;11.80
21849;DHT22;11089;49.852;19.700;2023-04-01T07:58:13;12.80;6.90
21849;DHT22;11089;49.852;19.700;2023-04-01T08:11:39;13.60;1.00
21849;DHT22;11089;49.852;19.700;2023-04-01T08:18:35;13.50;1.00
21849;DHT22;11089;49.852;19.700;2023-04-01T08:21:47;13.70;1.00
21849;DHT22;11089;49.852;19.700;2023-04-01T08:24:51;13.70;1.00
21849;DHT22;11089;49.852;19.700;2023-04-01T08:28:03;13.70;1.00
21849;DHT22;11089;49.852;19.700;2023-04-01T08:31:06;13.80;1.00
21849;DHT22;11089;49.852;19.700;2023-04-01T08:34:16;13.80;1.00
21849;DHT22;11089;49.852;19.700;2023-04-01T08:37:28;13.50;1.00
21849;DHT22;11089;49.852;19.700;2023-04-01T08:40:55;13.10;1.00
21849;DHT22;11089;49.852;19.700;2023-04-01T08:47:40;13.00;1.00
21849;DHT22;11089;49.852;19.700;2023-04-01T08:51:03;13.00;1.00
21849;DHT22;11089;49.852;19.700;2023-04-01T08:54:27;12.90;1.00
21849;DHT22;11089;49.852;19.700;2023-04-01T09:01:33;13.00;1.00
21849;DHT22;11089;49.852;19.700;2023-04-01T09:15:02;13.10;1.00
21849;DHT22;11089;49.852;19.700;2023-04-01T09:17:47;13.10;1.00
21849;DHT22;11089;49.852;19.700;2023-04-01T09:27:29;13.00;1.00
21849;DHT22;11089;49.852;19.700;2023-04-01T09:34:07;13.00;1.00
21849;DHT22;11089;49.852;19.700;2023-04-01T09:40:34;13.70;1.00
21849;DHT22;11089;49.852;19.700;2023-04-01T09:44:00;13.60;1.00
21849;DHT22;11089;49.852;19.700;2023-04-01T09:47:16;13.20;1.00
21849;DHT22;11089;49.852;19.700;2023-04-01T09:50:31;13.20;1.00
21849;DHT22;11089;49.852;19.700;2023-04-01T10:00:19;13.70;1.00
21849;DHT22;11089;49.852;19.700;2023-04-01T10:03:49;13.50;1.00
21849;DHT22;11089;49.852;19.700;2023-04-01T10:10:32;13.10;1.00
21849;DHT22;11089;49.852;19.700;2023-04-01T10:30:45;12.40;99.90
21849;DHT22;11089;49.852;19.700;2023-04-01T10:40:57;12.60;90.40
21849;DHT22;11089;49.852;19.700;2023-04-01T10:51:16;15.20;1.00
21849;DHT22;11089;49.852;19.700;2023-04-01T11:37:30;18.70;99.90
21849;DHT22;11089;49.852;19.700;2023-04-01T11:40:56;17.10;99.90
21849;DHT22;11089;49.852;19.700;2023-04-01T11:47:52;15.70;99.90
21849;DHT22;11089;49.852;19.700;2023-04-01T11:54:28;15.50;99.90
21849;DHT22;11089;49.852;19.700;2023-04-01T11:57:46;15.40;99.90
21849;DHT22;11089;49.852;19.700;2023-04-01T12:07:21;14.80;99.90
21849;DHT22;11089;49.852;19.700;2023-04-01T12:13:49;14.40;1.00
21849;DHT22;11089;49.852;19.700;2023-04-01T12:17:00;14.20;1.00
21849;DHT22;11089;49.852;19.700;2023-04-01T12:23:26;14.10;1.00
21849;DHT22;11089;49.852;19.700;2023-04-01T12:26:47;14.20;1.00
21849;DHT22;11089;49.852;19.700;2023-04-01T12:36:54;14.60;1.00
21849;DHT22;11089;49.852;19.700;2023-04-01T12:49:55;14.60;1.00
21849;DHT22;11089;49.852;19.700;2023-04-01T13:13:10;13.20;1.00
21849;DHT22;11089;49.852;19.700;2023-04-01T13:16:52;13.20;1.00
21849;DHT22;11089;49.852;19.700;2023-04-01T13:33:45;13.10;1.00
21849;DHT22;11089;49.852;19.700;2023-04-01T13:40:02;13.00;99.90
21849;DHT22;11089;49.852;19.700;2023-04-01T13:43:16;13.00;99.90
21849;DHT22;11089;49.852;19.700;2023-04-01T13:46:34;13.00;99.90
21849;DHT22;11089;49.852;19.700;2023-04-01T14:16:06;13.00;99.90
21849;DHT22;11089;49.852;19.700;2023-04-01T14:19:19;12.80;1.00
21849;DHT22;11089;49.852;19.700;2023-04-01T14:36:01;12.70;40.20
21849;DHT22;11089;49.852;19.700;2023-04-01T14:49:41;12.50;1.00
21849;DHT22;11089;49.852;19.700;2023-04-01T14:52:28;12.40;1.60
21849;DHT22;11089;49.852;19.700;2023-04-01T14:58:49;12.20;1.00
21849;DHT22;11089;49.852;19.700;2023-04-01T15:08:44;12.50;1.00
21849;DHT22;11089;49.852;19.700;2023-04-01T15:12:00;12.70;1.00
21849;DHT22;11089;49.852;19.700;2023-04-01T15:19:29;12.70;99.90
21849;DHT22;11089;49.852;19.700;2023-04-01T15:28:59;12.70;99.90
21849;DHT22;11089;49.852;19.700;2023-04-01T15:44:42;12.60;99.90
21849;DHT22;11089;49.852;19.700;2023-04-01T15:47:59;12.60;99.90
21849;DHT22;11089;49.852;19.700;2023-04-01T16:07:58;12.50;99.90
21849;DHT22;11089;49.852;19.700;2023-04-01T16:11:28;12.50;99.90
21849;DHT22;11089;49.852;19.700;2023-04-01T16:22:03;12.50;90.80
21849;DHT22;11089;49.852;19.700;2023-04-01T16:25:26;12.50;99.90
21849;DHT22;11089;49.852;19.700;2023-04-01T16:32:12;12.40;99.90
21849;DHT22;11089;49.852;19.700;2023-04-01T16:35:31;12.20;99.90
21849;DHT22;11089;49.852;19.700;2023-04-01T16:38:50;11.90;99.90
21849;DHT22;11089;49.852;19.700;2023-04-01T16:42:42;11.80;1.00
21849;DHT22;11089;49.852;19.700;2023-04-01T16:45:36;11.80;1.00
21849;DHT22;11089;49.852;19.700;2023-04-01T16:55:18;11.70;1.00
21849;DHT22;11089;49.852;19.700;2023-04-01T16:58:27;11.30;1.00
21849;DHT22;11089;49.852;19.700;2023-04-01T17:05:18;11.20;1.00
21849;DHT22;11089;49.852;19.700;2023-04-01T17:08:34;11.20;99.90
21849;DHT22;11089;49.852;19.700;2023-04-01T17:11:57;11.10;1.00
21849;DHT22;11089;49.852;19.700;2023-04-01T17:25:17;10.60;99.90
21849;DHT22;11089;49.852;19.700;2023-04-01T17:32:09;10.50;63.30
21849;DHT22;11089;49.852;19.700;2023-04-01T17:35:19;10.50;1.00
21849;DHT22;11089;49.852;19.700;2023-04-01T17:38:50;10.20;1.00
21849;DHT22;11089;49.852;19.700;2023-04-01T17:42:11;10.10;99.90
21849;DHT22;11089;49.852;19.700;2023-04-01T17:45:29;10.00;1.00
21849;DHT22;11089;49.852;19.700;2023-04-01T17:48:47;10.00;1.00
21849;DHT22;11089;49.852;19.700;2023-04-01T17:55:38;9.80;1.00
21849;DHT22;11089;49.852;19.700;2023-04-01T17:59:35;9.70;1.00
21849;DHT22;11089;49.852;19.700;2023-04-01T18:12:15;9.60;1.00
21849;DHT22;11089;49.852;19.700;2023-04-01T18:22:08;9.60;1.00
21849;DHT22;11089;49.852;19.700;2023-04-01T18:28:52;9.50;1.00
21849;DHT22;11089;49.852;19.700;2023-04-01T18:32:17;9.50;1.00
21849;DHT22;11089;49.852;19.700;2023-04-01T18:36:19;9.60;1.00
21849;DHT22;11089;49.852;19.700;2023-04-01T18:39:22;9.70;1.00
21849;DHT22;11089;49.852;19.700;2023-04-01T18:45:58;9.60;53.50
21849;DHT22;11089;49.852;19.700;2023-04-01T18:52:25;9.50;99.90
21849;DHT22;11089;49.852;19.700;2023-04-01T19:05:34;9.60;99.90
21849;DHT22;11089;49.852;19.700;2023-04-01T19:08:40;9.60;1.00
21849;DHT22;11089;49.852;19.700;2023-04-01T19:15:17;9.50;99.90
21849;DHT22;11089;49.852;19.700;2023-04-01T19:18:40;9.50;99.90
21849;DHT22;11089;49.852;19.700;2023-04-01T19:32:16;9.40;99.90
21849;DHT22;11089;49.852;19.700;2023-04-01T19:39:31;9.30;99.90
21849;DHT22;11089;49.852;19.700;2023-04-01T19:45:52;9.30;99.90
21849;DHT22;11089;49.852;19.700;2023-04-01T19:52:33;9.40;99.90
21849;DHT22;11089;49.852;19.700;2023-04-01T19:56:22;9.40;99.90
21849;DHT22;11089;49.852;19.700;2023-04-01T19:59:22;9.40;99.90
21849;DHT22;11089;49.852;19.700;2023-04-01T20:09:40;9.40;99.90
21849;DHT22;11089;49.852;19.700;2023-04-01T20:16:02;9.40;99.90
21849;DHT22;11089;49.852;19.700;2023-04-01T20:19:04;9.40;99.90
21849;DHT22;11089;49.852;19.700;2023-04-01T20:22:23;9.30;99.90
21849;DHT22;11089;49.852;19.700;2023-04-01T20:29:14;9.20;99.90
21849;DHT22;11089;49.852;19.700;2023-04-01T21:25:26;9.30;99.90
21849;DHT22;11089;49.852;19.700;2023-04-01T21:32:19;9.20;99.90
21849;DHT22;11089;49.852;19.700;2023-04-01T21:39:15;9.20;99.90
21849;DHT22;11089;49.852;19.700;2023-04-01T21:46:00;9.10;99.90
21849;DHT22;11089;49.852;19.700;2023-04-01T21:49:14;9.00;99.90
21849;DHT22;11089;49.852;19.700;2023-04-01T21:52:29;9.10;99.90
21849;DHT22;11089;49.852;19.700;2023-04-01T21:55:55;9.10;99.90
21849;DHT22;11089;49.852;19.700;2023-04-01T22:32:24;9.00;99.90
21849;DHT22;11089;49.852;19.700;2023-04-01T22:57:53;9.00;99.90
21849;DHT22;11089;49.852;19.700;2023-04-01T23:01:01;8.90;99.90
21849;DHT22;11089;49.852;19.700;2023-04-01T23:04:05;9.00;99.90
21849;DHT22;11089;49.852;19.700;2023-04-01T23:27:11;8.90;99.90
21849;DHT22;11089;49.852;19.700;2023-04-01T23:33:39;9.00;99.90
21849;DHT22;11089;49.852;19.700;2023-04-01T23:36:43;9.00;99.90
21849;DHT22;11089;49.852;19.700;2023-04-01T23:39:46;8.90;99.90
21849;DHT22;11089;49.852;19.700;2023-04-01T23:42:49;8.90;99.90
21849;DHT22;11089;49.852;19.700;2023-04-01T23:45:50;9.00;99.90
21849;DHT22;11089;49.852;19.700;2023-04-01T23:48:52;9.00;99.90
21849;DHT22;11089;49.852;19.700;2023-04-01T23:55:27;8.90;99.90
21849;DHT22;11089;49.852;19.700;2023-04-01T23:58:38;9.00;99.90
